sensor_id;sensor_type;location;lat;lon;timestamp;pressure;altitude;pressure_sealevel;temperature;humidity
75051;BME280;63628;47.656;11.310;2024-02-15T00:01:51;95331.66;;;6.62;76.54
75051;BME280;63628;47.656;11.310;2024-02-15T00:04:19;95335.72;;;6.64;75.41
75051;BME280;63628;47.656;11.310;2024-02-15T00:06:47;95336.66;;;6.22;79.43
75051;BME280;63628;47.656;11.310;2024-02-15T00:09:14;95343.69;;;6.50;76.00
75051;BME280;63628;47.656;11.310;2024-02-15T00:11:41;95343.94;;;6.27;78.63
75051;BME280;63628;47.656;11.310;2024-02-15T00:14:07;95346.16;;;6.51;76.67
75051;BME280;63628;47.656;11.310;2024-02-15T00:16:35;95334.44;;;6.54;75.68
75051;BME280;63628;47.656;11.310;2024-02-15T00:19:05;95343.59;;;6.64;76.05
75051;BME280;63628;47.656;11.310;2024-02-15T00:21:35;95349.25;;;6.61;76.14
75051;BME280;63628;47.656;11.310;2024-02-15T00:24:02;95354.94;;;6.65;75.34
75051;BME280;63628;47.656;11.310;2024-02-15T00:26:29;95361.44;;;5.70;80.25
75051;BME280;63628;47.656;11.310;2024-02-15T00:28:58;95355.91;;;6.29;78.29
75051;BME280;63628;47.656;11.310;2024-02-15T00:31:25;95363.28;;;6.47;76.85
75051;BME280;63628;47.656;11.310;2024-02-15T00:33:52;95358.94;;;6.61;76.07
75051;BME280;63628;47.656;11.310;2024-02-15T00:36:21;95361.09;;;6.23;79.13
75051;BME280;63628;47.656;11.310;2024-02-15T00:38:49;95361.63;;;5.69;81.10
75051;BME280;63628;47.656;11.310;2024-02-15T00:41:16;95352.41;;;5.94;78.37
75051;BME280;63628;47.656;11.310;2024-02-15T00:43:42;95362.69;;;5.53;79.14
75051;BME280;63628;47.656;11.310;2024-02-15T00:46:10;95357.28;;;6.25;78.28
75051;BME280;63628;47.656;11.310;2024-02-15T00:48:36;95371.28;;;6.04;77.67
75051;BME280;63628;47.656;11.310;2024-02-15T00:51:04;95372.53;;;6.09;76.99
75051;BME280;63628;47.656;11.310;2024-02-15T00:53:31;95370.81;;;6.50;76.71
75051;BME280;63628;47.656;11.310;2024-02-15T00:55:59;95366.22;;;6.59;76.04
75051;BME280;63628;47.656;11.310;2024-02-15T00:58:26;95359.72;;;6.55;76.48
75051;BME280;63628;47.656;11.310;2024-02-15T01:00:53;95355.28;;;6.55;76.30
75051;BME280;63628;47.656;11.310;2024-02-15T01:03:20;95358.91;;;6.54;76.53
75051;BME280;63628;47.656;11.310;2024-02-15T01:05:47;95347.97;;;6.51;76.66
75051;BME280;63628;47.656;11.310;2024-02-15T01:08:14;95347.97;;;6.51;76.71
75051;BME280;63628;47.656;11.310;2024-02-15T01:10:41;95350.75;;;5.51;77.36
75051;BME280;63628;47.656;11.310;2024-02-15T01:13:09;95357.59;;;5.30;81.39
75051;BME280;63628;47.656;11.310;2024-02-15T01:15:36;95351.97;;;6.19;77.73
75051;BME280;63628;47.656;11.310;2024-02-15T01:18:04;95354.47;;;6.27;77.08
75051;BME280;63628;47.656;11.310;2024-02-15T01:20:31;95349.53;;;6.45;76.11
75051;BME280;63628;47.656;11.310;2024-02-15T01:22:57;95343.69;;;6.50;74.89
75051;BME280;63628;47.656;11.310;2024-02-15T01:25:24;95354.03;;;5.81;78.80
75051;BME280;63628;47.656;11.310;2024-02-15T01:27:51;95350.06;;;6.34;77.00
75051;BME280;63628;47.656;11.310;2024-02-15T01:30:19;95350.16;;;6.47;76.05
75051;BME280;63628;47.656;11.310;2024-02-15T01:32:46;95347.66;;;6.39;74.80
75051;BME280;63628;47.656;11.310;2024-02-15T01:35:13;95358.13;;;5.40;79.80
75051;BME280;63628;47.656;11.310;2024-02-15T01:37:40;95339.66;;;4.98;82.92
75051;BME280;63628;47.656;11.310;2024-02-15T01:40:08;95336.91;;;5.85;79.51
75051;BME280;63628;47.656;11.310;2024-02-15T01:42:39;95330.06;;;6.05;76.20
75051;BME280;63628;47.656;11.310;2024-02-15T01:45:06;95340.78;;;5.25;81.75
75051;BME280;63628;47.656;11.310;2024-02-15T01:47:35;95336.09;;;5.84;79.61
75051;BME280;63628;47.656;11.310;2024-02-15T01:50:02;95327.38;;;6.26;76.87
75051;BME280;63628;47.656;11.310;2024-02-15T01:52:30;95338.47;;;5.94;80.06
75051;BME280;63628;47.656;11.310;2024-02-15T01:54:57;95336.31;;;6.32;76.54
75051;BME280;63628;47.656;11.310;2024-02-15T01:57:24;95338.41;;;6.43;76.09
75051;BME280;63628;47.656;11.310;2024-02-15T01:59:51;95337.59;;;6.43;76.10
75051;BME280;63628;47.656;11.310;2024-02-15T02:02:20;95338.41;;;6.43;76.26
75051;BME280;63628;47.656;11.310;2024-02-15T02:04:50;95336.97;;;6.41;75.97
75051;BME280;63628;47.656;11.310;2024-02-15T02:07:17;95334.13;;;6.42;74.89
75051;BME280;63628;47.656;11.310;2024-02-15T02:09:44;95334.31;;;5.63;78.78
75051;BME280;63628;47.656;11.310;2024-02-15T02:12:12;95330.38;;;5.31;81.34
75051;BME280;63628;47.656;11.310;2024-02-15T02:14:39;95328.44;;;5.61;80.59
75051;BME280;63628;47.656;11.310;2024-02-15T02:17:12;95329.38;;;6.24;77.17
75051;BME280;63628;47.656;11.310;2024-02-15T02:19:41;95321.72;;;6.29;75.67
75051;BME280;63628;47.656;11.310;2024-02-15T02:22:09;95324.00;;;6.39;76.02
75051;BME280;63628;47.656;11.310;2024-02-15T02:24:53;95325.63;;;6.40;76.40
75051;BME280;63628;47.656;11.310;2024-02-15T02:27:21;95311.53;;;6.13;77.22
75051;BME280;63628;47.656;11.310;2024-02-15T02:29:48;95312.88;;;6.37;76.20
75051;BME280;63628;47.656;11.310;2024-02-15T02:32:15;95318.19;;;6.44;75.73
75051;BME280;63628;47.656;11.310;2024-02-15T02:34:43;95323.63;;;6.42;75.85
75051;BME280;63628;47.656;11.310;2024-02-15T02:37:11;95324.06;;;6.46;76.03
75051;BME280;63628;47.656;11.310;2024-02-15T02:39:38;95323.50;;;5.94;79.48
75051;BME280;63628;47.656;11.310;2024-02-15T02:42:06;95321.13;;;5.57;81.37
75051;BME280;63628;47.656;11.310;2024-02-15T02:44:34;95322.56;;;5.02;83.25
75051;BME280;63628;47.656;11.310;2024-02-15T02:47:01;95323.31;;;5.32;84.10
75051;BME280;63628;47.656;11.310;2024-02-15T02:49:28;95321.25;;;5.91;79.70
75051;BME280;63628;47.656;11.310;2024-02-15T02:51:55;95325.56;;;6.27;77.41
75051;BME280;63628;47.656;11.310;2024-02-15T02:54:21;95321.34;;;6.32;76.91
75051;BME280;63628;47.656;11.310;2024-02-15T02:56:48;95322.38;;;6.38;76.34
75051;BME280;63628;47.656;11.310;2024-02-15T02:59:17;95325.31;;;5.94;78.36
75051;BME280;63628;47.656;11.310;2024-02-15T03:01:44;95313.81;;;6.23;77.03
75051;BME280;63628;47.656;11.310;2024-02-15T03:04:10;95316.91;;;6.33;76.55
75051;BME280;63628;47.656;11.310;2024-02-15T03:06:38;95311.44;;;6.34;76.63
75051;BME280;63628;47.656;11.310;2024-02-15T03:09:09;95310.03;;;6.32;76.38
75051;BME280;63628;47.656;11.310;2024-02-15T03:11:36;95321.69;;;5.52;79.06
75051;BME280;63628;47.656;11.310;2024-02-15T03:14:03;95310.50;;;6.14;77.10
75051;BME280;63628;47.656;11.310;2024-02-15T03:16:34;95310.16;;;6.24;76.80
75051;BME280;63628;47.656;11.310;2024-02-15T03:19:00;95309.00;;;6.33;76.19
75051;BME280;63628;47.656;11.310;2024-02-15T03:21:31;95313.75;;;5.46;76.34
75051;BME280;63628;47.656;11.310;2024-02-15T03:23:58;95308.13;;;5.49;79.57
75051;BME280;63628;47.656;11.310;2024-02-15T03:26:29;95306.88;;;6.15;77.08
75051;BME280;63628;47.656;11.310;2024-02-15T03:28:57;95302.09;;;6.25;77.04
75051;BME280;63628;47.656;11.310;2024-02-15T03:31:24;95308.66;;;4.87;77.20
75051;BME280;63628;47.656;11.310;2024-02-15T03:33:52;95313.19;;;5.14;79.58
75051;BME280;63628;47.656;11.310;2024-02-15T03:36:21;95313.47;;;6.04;77.29
75051;BME280;63628;47.656;11.310;2024-02-15T03:38:48;95301.66;;;6.22;76.19
75051;BME280;63628;47.656;11.310;2024-02-15T03:41:15;95309.97;;;6.25;76.56
75051;BME280;63628;47.656;11.310;2024-02-15T03:43:41;95310.00;;;5.33;72.41
75051;BME280;63628;47.656;11.310;2024-02-15T03:46:08;95310.75;;;5.91;77.04
75051;BME280;63628;47.656;11.310;2024-02-15T03:48:39;95303.06;;;6.18;76.71
75051;BME280;63628;47.656;11.310;2024-02-15T03:51:07;95303.69;;;4.92;71.63
75051;BME280;63628;47.656;11.310;2024-02-15T03:53:36;95306.56;;;5.54;77.54
75051;BME280;63628;47.656;11.310;2024-02-15T03:56:03;95304.84;;;6.11;76.13
75051;BME280;63628;47.656;11.310;2024-02-15T03:58:30;95301.06;;;6.20;76.19
75051;BME280;63628;47.656;11.310;2024-02-15T04:00:59;95308.16;;;6.26;75.83
75051;BME280;63628;47.656;11.310;2024-02-15T04:03:26;95309.16;;;6.25;76.31
75051;BME280;63628;47.656;11.310;2024-02-15T04:05:53;95310.16;;;6.24;76.22
75051;BME280;63628;47.656;11.310;2024-02-15T04:08:22;95309.56;;;6.22;75.20
75051;BME280;63628;47.656;11.310;2024-02-15T04:10:48;95322.13;;;5.34;70.11
75051;BME280;63628;47.656;11.310;2024-02-15T04:13:19;95327.78;;;3.15;75.24
75051;BME280;63628;47.656;11.310;2024-02-15T04:15:45;95304.19;;;5.38;79.77
75051;BME280;63628;47.656;11.310;2024-02-15T04:18:13;95311.44;;;6.00;77.39
75051;BME280;63628;47.656;11.310;2024-02-15T04:20:40;95312.09;;;6.09;76.36
75051;BME280;63628;47.656;11.310;2024-02-15T04:23:12;95312.34;;;6.14;76.21
75051;BME280;63628;47.656;11.310;2024-02-15T04:25:40;95305.22;;;6.08;75.38
75051;BME280;63628;47.656;11.310;2024-02-15T04:28:10;95307.47;;;6.11;76.64
75051;BME280;63628;47.656;11.310;2024-02-15T04:30:36;95310.91;;;6.11;76.82
75051;BME280;63628;47.656;11.310;2024-02-15T04:33:05;95306.66;;;6.10;76.40
75051;BME280;63628;47.656;11.310;2024-02-15T04:35:35;95302.78;;;6.06;76.93
75051;BME280;63628;47.656;11.310;2024-02-15T04:38:02;95308.47;;;6.10;76.86
75051;BME280;63628;47.656;11.310;2024-02-15T04:40:30;95305.78;;;4.82;74.94
75051;BME280;63628;47.656;11.310;2024-02-15T04:42:58;95311.09;;;5.67;78.06
75051;BME280;63628;47.656;11.310;2024-02-15T04:45:25;95319.94;;;5.59;76.76
75051;BME280;63628;47.656;11.310;2024-02-15T04:47:52;95312.50;;;5.63;70.01
75051;BME280;63628;47.656;11.310;2024-02-15T04:50:20;95327.84;;;4.28;73.57
75051;BME280;63628;47.656;11.310;2024-02-15T04:52:47;95323.59;;;4.86;80.60
75051;BME280;63628;47.656;11.310;2024-02-15T04:55:16;95316.38;;;5.46;71.31
75051;BME280;63628;47.656;11.310;2024-02-15T04:57:44;95315.28;;;5.19;77.07
75051;BME280;63628;47.656;11.310;2024-02-15T05:00:15;95317.56;;;5.86;76.13
75051;BME280;63628;47.656;11.310;2024-02-15T05:02:43;95306.38;;;5.98;75.72
75051;BME280;63628;47.656;11.310;2024-02-15T05:05:11;95310.22;;;6.02;75.61
75051;BME280;63628;47.656;11.310;2024-02-15T05:07:40;95304.34;;;6.00;75.84
75051;BME280;63628;47.656;11.310;2024-02-15T05:10:08;95310.84;;;5.19;69.27
75051;BME280;63628;47.656;11.310;2024-02-15T05:12:37;95317.28;;;3.01;75.55
75051;BME280;63628;47.656;11.310;2024-02-15T05:15:05;95313.25;;;4.99;80.51
75051;BME280;63628;47.656;11.310;2024-02-15T05:17:40;95312.59;;;5.76;77.36
75051;BME280;63628;47.656;11.310;2024-02-15T05:20:09;95304.03;;;5.89;76.30
75051;BME280;63628;47.656;11.310;2024-02-15T05:22:41;95310.66;;;4.85;67.04
75051;BME280;63628;47.656;11.310;2024-02-15T05:25:16;95305.13;;;5.52;77.44
75051;BME280;63628;47.656;11.310;2024-02-15T05:27:48;95304.59;;;5.84;76.75
75051;BME280;63628;47.656;11.310;2024-02-15T05:30:15;95305.03;;;5.88;73.97
75051;BME280;63628;47.656;11.310;2024-02-15T05:32:43;95301.16;;;5.84;75.24
75051;BME280;63628;47.656;11.310;2024-02-15T05:35:12;95304.50;;;5.92;75.85
75051;BME280;63628;47.656;11.310;2024-02-15T05:37:38;95298.63;;;5.90;75.80
75051;BME280;63628;47.656;11.310;2024-02-15T05:40:06;95301.06;;;5.92;75.92
75051;BME280;63628;47.656;11.310;2024-02-15T05:42:33;95310.38;;;5.94;75.91
75051;BME280;63628;47.656;11.310;2024-02-15T05:45:27;95316.03;;;4.62;70.90
75051;BME280;63628;47.656;11.310;2024-02-15T05:48:04;95315.59;;;5.73;75.94
75051;BME280;63628;47.656;11.310;2024-02-15T05:50:33;95322.16;;;5.84;75.68
75051;BME280;63628;47.656;11.310;2024-02-15T05:53:00;95316.56;;;5.87;75.77
75051;BME280;63628;47.656;11.310;2024-02-15T05:55:28;95314.38;;;5.90;75.38
75051;BME280;63628;47.656;11.310;2024-02-15T05:57:57;95314.28;;;5.84;76.38
75051;BME280;63628;47.656;11.310;2024-02-15T06:00:24;95311.03;;;5.82;76.14
75051;BME280;63628;47.656;11.310;2024-02-15T06:02:51;95311.84;;;5.82;76.65
75051;BME280;63628;47.656;11.310;2024-02-15T06:05:20;95308.56;;;4.95;76.62
75051;BME280;63628;47.656;11.310;2024-02-15T06:07:47;95301.41;;;5.67;76.40
75051;BME280;63628;47.656;11.310;2024-02-15T06:10:14;95307.97;;;4.78;69.34
75051;BME280;63628;47.656;11.310;2024-02-15T06:12:42;95316.56;;;4.72;78.50
75051;BME280;63628;47.656;11.310;2024-02-15T06:15:10;95309.81;;;5.56;76.75
75051;BME280;63628;47.656;11.310;2024-02-15T06:17:43;95314.97;;;5.71;76.01
75051;BME280;63628;47.656;11.310;2024-02-15T06:20:15;95307.69;;;5.45;68.45
75051;BME280;63628;47.656;11.310;2024-02-15T06:22:46;95320.91;;;4.35;68.43
75051;BME280;63628;47.656;11.310;2024-02-15T06:25:13;95307.69;;;4.73;76.54
75051;BME280;63628;47.656;11.310;2024-02-15T06:27:41;95303.75;;;5.56;76.02
75051;BME280;63628;47.656;11.310;2024-02-15T06:30:09;95308.44;;;4.23;70.65
75051;BME280;63628;47.656;11.310;2024-02-15T06:32:55;95313.13;;;1.73;74.26
75051;BME280;63628;47.656;11.310;2024-02-15T06:35:41;95318.69;;;1.37;76.67
75051;BME280;63628;47.656;11.310;2024-02-15T06:38:27;95308.91;;;4.56;79.56
75051;BME280;63628;47.656;11.310;2024-02-15T06:41:13;95313.22;;;3.67;79.18
75051;BME280;63628;47.656;11.310;2024-02-15T06:43:40;95309.41;;;5.17;78.02
75051;BME280;63628;47.656;11.310;2024-02-15T06:46:07;95316.75;;;5.43;76.25
75051;BME280;63628;47.656;11.310;2024-02-15T06:48:34;95310.13;;;5.47;75.80
75051;BME280;63628;47.656;11.310;2024-02-15T06:51:01;95319.06;;;5.52;76.15
75051;BME280;63628;47.656;11.310;2024-02-15T06:53:31;95318.88;;;5.54;76.43
75051;BME280;63628;47.656;11.310;2024-02-15T06:55:57;95319.06;;;5.52;75.82
75051;BME280;63628;47.656;11.310;2024-02-15T06:58:24;95314.88;;;5.58;75.33
75051;BME280;63628;47.656;11.310;2024-02-15T07:00:51;95314.69;;;5.59;75.09
75051;BME280;63628;47.656;11.310;2024-02-15T07:03:18;95312.25;;;5.58;75.97
75051;BME280;63628;47.656;11.310;2024-02-15T07:05:44;95320.13;;;5.58;75.94
75051;BME280;63628;47.656;11.310;2024-02-15T07:08:11;95321.31;;;5.55;75.58
75051;BME280;63628;47.656;11.310;2024-02-15T07:10:42;95323.88;;;5.49;75.08
75051;BME280;63628;47.656;11.310;2024-02-15T07:13:09;95318.13;;;5.60;75.41
75051;BME280;63628;47.656;11.310;2024-02-15T07:15:36;95320.50;;;5.55;75.47
75051;BME280;63628;47.656;11.310;2024-02-15T07:18:05;95321.69;;;5.52;75.58
75051;BME280;63628;47.656;11.310;2024-02-15T07:20:35;95322.53;;;4.51;70.16
75051;BME280;63628;47.656;11.310;2024-02-15T07:23:02;95321.47;;;4.96;76.87
75051;BME280;63628;47.656;11.310;2024-02-15T07:25:30;95326.41;;;5.21;75.87
75051;BME280;63628;47.656;11.310;2024-02-15T07:27:58;95314.13;;;5.21;77.13
75051;BME280;63628;47.656;11.310;2024-02-15T07:30:25;95317.00;;;5.48;75.52
75051;BME280;63628;47.656;11.310;2024-02-15T07:32:52;95323.94;;;5.55;75.33
75051;BME280;63628;47.656;11.310;2024-02-15T07:35:19;95319.13;;;5.59;75.13
75051;BME280;63628;47.656;11.310;2024-02-15T07:37:53;95314.22;;;5.77;76.29
75051;BME280;63628;47.656;11.310;2024-02-15T07:40:22;95317.28;;;5.81;74.49
75051;BME280;63628;47.656;11.310;2024-02-15T07:42:48;95312.34;;;5.71;77.63
75051;BME280;63628;47.656;11.310;2024-02-15T07:45:17;95305.91;;;6.51;75.46
75051;BME280;63628;47.656;11.310;2024-02-15T07:47:44;95308.63;;;6.01;75.01
75051;BME280;63628;47.656;11.310;2024-02-15T07:50:16;95311.53;;;6.13;75.58
75051;BME280;63628;47.656;11.310;2024-02-15T07:52:46;95313.31;;;6.75;75.07
75051;BME280;63628;47.656;11.310;2024-02-15T07:55:14;95316.34;;;7.33;71.40
75051;BME280;63628;47.656;11.310;2024-02-15T07:57:41;95307.31;;;8.15;69.82
75051;BME280;63628;47.656;11.310;2024-02-15T08:00:08;95306.47;;;7.61;68.34
75051;BME280;63628;47.656;11.310;2024-02-15T08:02:39;95314.31;;;7.22;71.52
75051;BME280;63628;47.656;11.310;2024-02-15T08:05:09;95308.63;;;7.18;71.65
75051;BME280;63628;47.656;11.310;2024-02-15T08:07:37;95302.28;;;6.99;72.58
75051;BME280;63628;47.656;11.310;2024-02-15T08:10:06;95308.06;;;6.13;73.33
75051;BME280;63628;47.656;11.310;2024-02-15T08:12:40;95301.19;;;7.42;71.40
75051;BME280;63628;47.656;11.310;2024-02-15T08:15:08;95297.97;;;8.25;70.88
75051;BME280;63628;47.656;11.310;2024-02-15T08:17:40;95296.59;;;7.90;69.00
75051;BME280;63628;47.656;11.310;2024-02-15T08:20:10;95297.00;;;6.99;70.71
75051;BME280;63628;47.656;11.310;2024-02-15T08:22:37;95288.25;;;9.73;68.16
75051;BME280;63628;47.656;11.310;2024-02-15T08:25:07;95282.50;;;9.51;65.54
75051;BME280;63628;47.656;11.310;2024-02-15T08:27:37;95273.63;;;10.27;65.49
75051;BME280;63628;47.656;11.310;2024-02-15T08:30:08;95272.84;;;10.45;64.71
75051;BME280;63628;47.656;11.310;2024-02-15T08:32:36;95271.50;;;10.36;64.97
75051;BME280;63628;47.656;11.310;2024-02-15T08:35:05;95269.63;;;10.43;62.93
75051;BME280;63628;47.656;11.310;2024-02-15T08:37:32;95262.63;;;10.67;62.60
75051;BME280;63628;47.656;11.310;2024-02-15T08:40:03;95267.06;;;10.55;63.71
75051;BME280;63628;47.656;11.310;2024-02-15T08:42:30;95267.19;;;10.41;63.99
75051;BME280;63628;47.656;11.310;2024-02-15T08:44:57;95261.75;;;10.73;60.73
75051;BME280;63628;47.656;11.310;2024-02-15T08:47:25;95264.50;;;8.26;66.67
75051;BME280;63628;47.656;11.310;2024-02-15T08:49:53;95269.41;;;7.96;76.03
75051;BME280;63628;47.656;11.310;2024-02-15T08:52:21;95265.63;;;9.52;66.06
75051;BME280;63628;47.656;11.310;2024-02-15T08:54:48;95272.88;;;7.90;68.56
75051;BME280;63628;47.656;11.310;2024-02-15T08:57:14;95255.94;;;10.64;64.74
75051;BME280;63628;47.656;11.310;2024-02-15T08:59:41;95251.19;;;12.16;59.84
75051;BME280;63628;47.656;11.310;2024-02-15T09:02:09;95252.97;;;11.39;60.94
75051;BME280;63628;47.656;11.310;2024-02-15T09:04:36;95240.69;;;12.21;59.40
75051;BME280;63628;47.656;11.310;2024-02-15T09:07:02;95234.59;;;12.96;56.09
75051;BME280;63628;47.656;11.310;2024-02-15T09:09:32;95236.22;;;10.78;58.25
75051;BME280;63628;47.656;11.310;2024-02-15T09:12:01;95234.81;;;12.19;59.26
75051;BME280;63628;47.656;11.310;2024-02-15T09:14:32;95233.66;;;12.38;57.30
75051;BME280;63628;47.656;11.310;2024-02-15T09:16:59;95231.22;;;12.02;57.60
75051;BME280;63628;47.656;11.310;2024-02-15T09:19:26;95234.69;;;12.02;60.57
75051;BME280;63628;47.656;11.310;2024-02-15T09:21:53;95229.63;;;12.48;57.18
75051;BME280;63628;47.656;11.310;2024-02-15T09:24:21;95236.88;;;12.05;57.36
75051;BME280;63628;47.656;11.310;2024-02-15T09:26:49;95242.66;;;11.61;62.74
75051;BME280;63628;47.656;11.310;2024-02-15T09:29:16;95236.66;;;11.54;57.22
75051;BME280;63628;47.656;11.310;2024-02-15T09:31:43;95228.91;;;13.61;57.67
75051;BME280;63628;47.656;11.310;2024-02-15T09:34:09;95220.75;;;15.61;52.61
75051;BME280;63628;47.656;11.310;2024-02-15T09:36:36;95216.66;;;14.82;52.13
75051;BME280;63628;47.656;11.310;2024-02-15T09:39:06;95213.91;;;14.39;55.22
75051;BME280;63628;47.656;11.310;2024-02-15T09:41:33;95210.47;;;14.99;53.52
75051;BME280;63628;47.656;11.310;2024-02-15T09:44:04;95197.16;;;16.16;50.92
75051;BME280;63628;47.656;11.310;2024-02-15T09:46:35;95201.41;;;15.00;53.20
75051;BME280;63628;47.656;11.310;2024-02-15T09:49:03;95202.28;;;12.87;60.70
75051;BME280;63628;47.656;11.310;2024-02-15T09:51:32;95198.75;;;11.65;59.63
75051;BME280;63628;47.656;11.310;2024-02-15T09:54:00;95209.28;;;11.30;60.02
75051;BME280;63628;47.656;11.310;2024-02-15T09:56:28;95205.13;;;9.19;64.57
75051;BME280;63628;47.656;11.310;2024-02-15T09:58:57;95199.59;;;10.75;65.75
75051;BME280;63628;47.656;11.310;2024-02-15T10:01:31;95184.22;;;15.61;54.60
75051;BME280;63628;47.656;11.310;2024-02-15T10:03:58;95184.94;;;15.30;49.71
75051;BME280;63628;47.656;11.310;2024-02-15T10:06:25;95172.84;;;16.60;50.67
75051;BME280;63628;47.656;11.310;2024-02-15T10:08:53;95177.53;;;14.44;52.28
75051;BME280;63628;47.656;11.310;2024-02-15T10:11:21;95175.94;;;16.89;50.98
75051;BME280;63628;47.656;11.310;2024-02-15T10:13:47;95168.50;;;16.91;49.53
75051;BME280;63628;47.656;11.310;2024-02-15T10:16:15;95169.19;;;18.05;46.93
75051;BME280;63628;47.656;11.310;2024-02-15T10:18:44;95160.81;;;18.57;46.46
75051;BME280;63628;47.656;11.310;2024-02-15T10:21:23;95156.63;;;19.50;46.03
75051;BME280;63628;47.656;11.310;2024-02-15T10:24:02;95158.25;;;19.56;43.92
75051;BME280;63628;47.656;11.310;2024-02-15T10:26:31;95163.41;;;15.63;47.43
75051;BME280;63628;47.656;11.310;2024-02-15T10:29:06;95161.44;;;15.85;51.47
75051;BME280;63628;47.656;11.310;2024-02-15T10:31:37;95165.91;;;15.21;48.64
75051;BME280;63628;47.656;11.310;2024-02-15T10:34:06;95159.63;;;14.40;53.56
75051;BME280;63628;47.656;11.310;2024-02-15T10:36:34;95157.66;;;15.22;50.65
75051;BME280;63628;47.656;11.310;2024-02-15T10:39:11;95158.34;;;14.64;50.68
75051;BME280;63628;47.656;11.310;2024-02-15T10:41:44;95146.84;;;15.98;51.23
75051;BME280;63628;47.656;11.310;2024-02-15T10:44:15;95140.53;;;18.11;46.65
75051;BME280;63628;47.656;11.310;2024-02-15T10:46:42;95144.72;;;15.63;47.18
75051;BME280;63628;47.656;11.310;2024-02-15T10:49:11;95140.53;;;18.05;48.32
75051;BME280;63628;47.656;11.310;2024-02-15T10:51:39;95132.00;;;18.93;42.29
75051;BME280;63628;47.656;11.310;2024-02-15T10:54:12;95125.41;;;18.65;41.10
75051;BME280;63628;47.656;11.310;2024-02-15T10:56:43;95117.66;;;15.81;47.41
75051;BME280;63628;47.656;11.310;2024-02-15T10:59:17;95111.34;;;15.98;46.86
75051;BME280;63628;47.656;11.310;2024-02-15T11:01:45;95101.47;;;17.89;43.24
75051;BME280;63628;47.656;11.310;2024-02-15T11:04:20;95115.81;;;14.74;48.35
75051;BME280;63628;47.656;11.310;2024-02-15T11:06:49;95109.38;;;13.88;49.63
75051;BME280;63628;47.656;11.310;2024-02-15T11:09:18;95107.28;;;14.72;49.28
75051;BME280;63628;47.656;11.310;2024-02-15T11:11:46;95096.19;;;15.07;49.30
75051;BME280;63628;47.656;11.310;2024-02-15T11:14:23;95081.97;;;16.50;46.60
75051;BME280;63628;47.656;11.310;2024-02-15T11:16:50;95091.91;;;13.58;48.56
75051;BME280;63628;47.656;11.310;2024-02-15T11:19:45;95084.00;;;14.89;48.48
75051;BME280;63628;47.656;11.310;2024-02-15T11:22:14;95076.47;;;15.08;45.16
75051;BME280;63628;47.656;11.310;2024-02-15T11:24:46;95068.69;;;16.65;40.16
75051;BME280;63628;47.656;11.310;2024-02-15T11:27:24;95057.63;;;16.46;41.43
75051;BME280;63628;47.656;11.310;2024-02-15T11:29:52;95055.06;;;18.14;41.37
75051;BME280;63628;47.656;11.310;2024-02-15T11:32:36;95043.91;;;17.00;39.60
75051;BME280;63628;47.656;11.310;2024-02-15T11:35:05;95046.66;;;15.11;43.46
75051;BME280;63628;47.656;11.310;2024-02-15T11:37:51;95051.56;;;13.28;51.99
75051;BME280;63628;47.656;11.310;2024-02-15T11:40:22;95058.63;;;10.20;62.39
75051;BME280;63628;47.656;11.310;2024-02-15T11:42:50;95041.56;;;13.52;49.65
75051;BME280;63628;47.656;11.310;2024-02-15T11:45:17;95045.53;;;12.02;56.52
75051;BME280;63628;47.656;11.310;2024-02-15T11:47:51;95039.41;;;12.70;57.26
75051;BME280;63628;47.656;11.310;2024-02-15T11:50:20;95022.84;;;14.46;47.04
75051;BME280;63628;47.656;11.310;2024-02-15T11:52:48;95028.00;;;13.53;53.36
75051;BME280;63628;47.656;11.310;2024-02-15T11:55:18;95024.91;;;15.30;44.88
75051;BME280;63628;47.656;11.310;2024-02-15T11:57:54;95015.44;;;13.49;48.72
75051;BME280;63628;47.656;11.310;2024-02-15T12:00:27;95018.44;;;13.52;50.36
75051;BME280;63628;47.656;11.310;2024-02-15T12:03:14;95007.81;;;14.40;48.84
75051;BME280;63628;47.656;11.310;2024-02-15T12:06:01;94998.47;;;12.99;55.04
75051;BME280;63628;47.656;11.310;2024-02-15T12:08:48;95001.22;;;13.77;50.27
75051;BME280;63628;47.656;11.310;2024-02-15T12:11:57;94992.34;;;11.80;59.11
75051;BME280;63628;47.656;11.310;2024-02-15T12:14:42;94981.69;;;11.92;59.12
75051;BME280;63628;47.656;11.310;2024-02-15T12:17:28;94990.31;;;12.56;55.27
75051;BME280;63628;47.656;11.310;2024-02-15T12:20:13;94988.78;;;11.28;60.98
75051;BME280;63628;47.656;11.310;2024-02-15T12:22:46;94986.09;;;12.15;59.29
75051;BME280;63628;47.656;11.310;2024-02-15T12:25:14;94977.88;;;14.49;49.61
75051;BME280;63628;47.656;11.310;2024-02-15T12:27:42;94966.75;;;15.21;47.21
75051;BME280;63628;47.656;11.310;2024-02-15T12:30:13;94969.16;;;14.59;51.91
75051;BME280;63628;47.656;11.310;2024-02-15T12:32:40;94967.91;;;15.41;48.09
75051;BME280;63628;47.656;11.310;2024-02-15T12:35:11;94970.13;;;14.26;52.00
75051;BME280;63628;47.656;11.310;2024-02-15T12:37:48;94960.56;;;15.16;50.36
75051;BME280;63628;47.656;11.310;2024-02-15T12:40:17;94964.16;;;15.37;49.87
75051;BME280;63628;47.656;11.310;2024-02-15T12:42:44;94965.88;;;14.79;48.99
75051;BME280;63628;47.656;11.310;2024-02-15T12:45:16;94958.44;;;15.18;49.43
75051;BME280;63628;47.656;11.310;2024-02-15T12:47:47;94960.66;;;14.62;49.29
75051;BME280;63628;47.656;11.310;2024-02-15T12:50:17;94951.44;;;15.07;50.05
75051;BME280;63628;47.656;11.310;2024-02-15T12:52:45;94952.16;;;15.34;48.64
75051;BME280;63628;47.656;11.310;2024-02-15T12:55:16;94955.41;;;15.46;50.53
75051;BME280;63628;47.656;11.310;2024-02-15T12:57:44;94952.72;;;14.99;48.32
75051;BME280;63628;47.656;11.310;2024-02-15T13:00:13;94959.38;;;13.50;51.06
75051;BME280;63628;47.656;11.310;2024-02-15T13:02:45;94955.53;;;13.41;53.48
75051;BME280;63628;47.656;11.310;2024-02-15T13:05:15;94953.41;;;13.05;55.46
75051;BME280;63628;47.656;11.310;2024-02-15T13:07:42;94956.31;;;10.86;62.67
75051;BME280;63628;47.656;11.310;2024-02-15T13:10:09;94947.13;;;11.63;59.92